createdAt,value
2022-12-16T08:07:38.029Z,1008.60
2022-12-16T08:08:12.542Z,1008.57
2022-12-16T08:09:12.538Z,1008.53
2022-12-16T08:10:12.512Z,1008.56
2022-12-16T08:11:12.513Z,1008.58
2022-12-16T08:12:12.545Z,1008.54
2022-12-16T08:13:12.490Z,1008.50
2022-12-16T08:14:12.485Z,1008.44
2022-12-16T08:15:12.471Z,1008.45
2022-12-16T08:16:12.525Z,1008.48
2022-12-16T08:17:12.624Z,1008.48
2022-12-16T08:18:12.443Z,1008.55
2022-12-16T08:19:12.428Z,1008.55
2022-12-16T08:20:12.406Z,1008.55
2022-12-16T08:21:12.391Z,1008.54
2022-12-16T08:22:12.412Z,1008.56
2022-12-16T08:23:12.457Z,1008.55
2022-12-16T08:24:12.379Z,1008.53
2022-12-16T08:25:12.368Z,1008.53
2022-12-16T08:26:12.358Z,1008.54
2022-12-16T08:27:12.329Z,1008.53
2022-12-16T08:28:12.338Z,1008.55
2022-12-16T08:29:35.108Z,1008.53
2022-12-16T08:30:13.300Z,1008.56
2022-12-16T08:31:12.362Z,1008.54
2022-12-16T08:32:12.294Z,1008.55
2022-12-16T08:33:18.907Z,1008.48
2022-12-16T08:34:13.257Z,1008.53
2022-12-16T08:35:12.242Z,1008.50
2022-12-16T08:36:12.235Z,1008.52
2022-12-16T08:37:12.235Z,1008.57
2022-12-16T08:39:13.238Z,1008.65
2022-12-16T08:40:34.412Z,1008.65
2022-12-16T08:41:13.189Z,1008.63
2022-12-16T08:42:12.176Z,1008.60
2022-12-16T08:43:12.829Z,1008.60
2022-12-16T08:44:12.188Z,1008.62
2022-12-16T08:45:12.253Z,1008.65
2022-12-16T08:46:12.281Z,1008.72
2022-12-16T08:47:12.112Z,1008.68
2022-12-16T08:48:12.102Z,1008.69
2022-12-16T08:49:12.088Z,1008.71
2022-12-16T08:50:12.094Z,1008.72
2022-12-16T08:51:12.080Z,1008.67
2022-12-16T08:52:12.057Z,1008.67
2022-12-16T08:53:12.044Z,1008.70
2022-12-16T08:54:12.053Z,1008.74
2022-12-16T08:55:12.072Z,1008.74
2022-12-16T08:56:12.028Z,1008.74
2022-12-16T08:57:12.000Z,1008.84
2022-12-16T08:58:11.994Z,1008.84
2022-12-16T08:59:11.995Z,1008.83
2022-12-16T09:00:11.998Z,1008.84
2022-12-16T09:01:12.028Z,1008.83
2022-12-16T09:02:12.149Z,1008.84
2022-12-16T09:03:12.136Z,1008.85
2022-12-16T09:04:12.025Z,1008.89
2022-12-16T09:05:11.927Z,1008.87
2022-12-16T09:06:11.924Z,1008.91
2022-12-16T09:07:11.896Z,1008.91
2022-12-16T09:08:11.898Z,1008.92
2022-12-16T09:09:11.883Z,1008.93
2022-12-16T09:10:11.868Z,1008.93
2022-12-16T09:11:11.883Z,1008.98
2022-12-16T09:12:11.854Z,1008.98
2022-12-16T09:13:11.830Z,1009.01
2022-12-16T09:14:11.839Z,1009.03
2022-12-16T09:15:11.818Z,1009.02
2022-12-16T09:16:17.382Z,1009.00
2022-12-16T09:17:12.892Z,1009.00
2022-12-16T09:18:11.780Z,1009.00
2022-12-16T09:19:11.775Z,1008.99
2022-12-16T09:20:11.769Z,1009.00
2022-12-16T09:21:11.747Z,1009.03
2022-12-16T09:22:11.754Z,1009.01
2022-12-16T09:23:11.734Z,1009.04
2022-12-16T09:24:11.712Z,1009.04
2022-12-16T09:25:11.694Z,1009.07
2022-12-16T09:26:11.748Z,1009.08
2022-12-16T09:27:11.742Z,1009.07
2022-12-16T09:28:11.779Z,1009.05
2022-12-16T09:29:11.652Z,1009.09
2022-12-16T09:30:11.646Z,1009.12
2022-12-16T09:31:11.736Z,1009.16
2022-12-16T09:32:11.624Z,1009.18
2022-12-16T09:33:11.635Z,1009.13
2022-12-16T09:34:11.603Z,1009.16
2022-12-16T09:35:13.679Z,1009.19
2022-12-16T09:36:11.580Z,1009.17
2022-12-16T09:37:11.567Z,1009.24
2022-12-16T09:38:11.843Z,1009.20
2022-12-16T09:39:11.551Z,1009.17
2022-12-16T09:40:11.538Z,1009.19
2022-12-16T09:41:11.522Z,1009.13
2022-12-16T09:42:11.514Z,1009.12
2022-12-16T09:43:11.551Z,1009.12
2022-12-16T09:44:11.496Z,1009.13
2022-12-16T09:45:11.492Z,1009.16
2022-12-16T09:46:11.552Z,1009.17
2022-12-16T09:47:11.475Z,1009.20
2022-12-16T09:48:11.606Z,1009.21
2022-12-16T09:49:11.462Z,1009.23
2022-12-16T09:50:11.441Z,1009.21
2022-12-16T09:51:11.418Z,1009.25
2022-12-16T09:52:15.072Z,1009.22
2022-12-16T09:53:12.391Z,1009.23
2022-12-16T09:54:11.426Z,1009.22
2022-12-16T09:55:11.384Z,1009.27
2022-12-16T09:56:11.380Z,1009.27
2022-12-16T09:57:11.350Z,1009.24
2022-12-16T09:58:11.341Z,1009.29
2022-12-16T09:59:11.368Z,1009.30
2022-12-16T10:00:11.342Z,1009.31
2022-12-16T10:01:11.360Z,1009.33
2022-12-16T10:02:11.510Z,1009.36
2022-12-16T10:03:11.443Z,1009.36
2022-12-16T10:04:11.324Z,1009.41
2022-12-16T10:05:11.274Z,1009.43
2022-12-16T10:06:11.256Z,1009.47
2022-12-16T10:07:11.246Z,1009.45
2022-12-16T10:08:17.170Z,1009.49
2022-12-16T10:09:12.231Z,1009.50
2022-12-16T10:10:11.236Z,1009.50
2022-12-16T10:11:11.198Z,1009.51
2022-12-16T10:12:11.189Z,1009.53
2022-12-16T10:13:11.194Z,1009.51
2022-12-16T10:14:14.505Z,1009.51
2022-12-16T10:15:12.194Z,1009.51
2022-12-16T10:16:11.325Z,1009.55
2022-12-16T10:17:11.145Z,1009.59
2022-12-16T10:18:11.280Z,1009.59
2022-12-16T10:19:11.113Z,1009.59
2022-12-16T10:20:11.120Z,1009.56
2022-12-16T10:21:11.101Z,1009.53
2022-12-16T10:22:11.090Z,1009.53
2022-12-16T10:23:11.064Z,1009.54
2022-12-16T10:24:11.061Z,1009.53
2022-12-16T10:25:11.044Z,1009.55
2022-12-16T10:26:11.088Z,1009.58
2022-12-16T10:27:11.024Z,1009.61
2022-12-16T10:28:11.029Z,1009.62
2022-12-16T10:29:11.116Z,1009.61
2022-12-16T10:30:11.010Z,1009.63
2022-12-16T10:31:11.081Z,1009.58
2022-12-16T10:32:10.988Z,1009.62
2022-12-16T10:33:10.971Z,1009.61
2022-12-16T10:34:10.964Z,1009.61
2022-12-16T10:35:10.952Z,1009.61
2022-12-16T10:36:10.933Z,1009.59
2022-12-16T10:37:14.241Z,1009.65
2022-12-16T10:38:12.086Z,1009.61
2022-12-16T10:39:10.909Z,1009.63
2022-12-16T10:40:10.897Z,1009.63
2022-12-16T10:41:10.882Z,1009.66
2022-12-16T10:42:11.033Z,1009.63
2022-12-16T10:43:10.859Z,1009.65
2022-12-16T10:44:10.883Z,1009.65
2022-12-16T10:45:10.836Z,1009.67
2022-12-16T10:46:10.893Z,1009.62
2022-12-16T10:47:10.867Z,1009.63
2022-12-16T10:48:10.842Z,1009.61
2022-12-16T10:49:10.867Z,1009.56
2022-12-16T10:50:10.837Z,1009.57
2022-12-16T10:51:10.776Z,1009.54
2022-12-16T10:52:10.763Z,1009.53
2022-12-16T10:53:10.734Z,1009.54
2022-12-16T10:54:10.747Z,1009.54
2022-12-16T10:55:10.715Z,1009.51
2022-12-16T10:56:10.723Z,1009.47
2022-12-16T10:57:10.693Z,1009.43
2022-12-16T10:58:10.693Z,1009.46
2022-12-16T10:59:10.711Z,1009.42
2022-12-16T11:00:10.676Z,1009.44
2022-12-16T11:01:10.660Z,1009.44
2022-12-16T11:02:10.824Z,1009.46
2022-12-16T11:03:10.968Z,1009.52
2022-12-16T11:04:10.664Z,1009.53
2022-12-16T11:05:10.675Z,1009.60
2022-12-16T11:06:10.597Z,1009.55
2022-12-16T11:07:10.581Z,1009.48
2022-12-16T11:08:10.591Z,1009.46
2022-12-16T11:09:10.560Z,1009.51
2022-12-16T11:10:10.574Z,1009.51
2022-12-16T11:11:10.548Z,1009.52
2022-12-16T11:12:10.548Z,1009.53
2022-12-16T11:13:10.527Z,1009.58
2022-12-16T11:14:10.506Z,1009.53
2022-12-16T11:15:28.706Z,1009.56
2022-12-16T11:16:11.574Z,1009.52
2022-12-16T11:17:10.486Z,1009.57
2022-12-16T11:18:10.481Z,1009.54
2022-12-16T11:19:10.471Z,1009.53
2022-12-16T11:20:10.452Z,1009.57
2022-12-16T11:21:14.428Z,1009.52
2022-12-16T11:22:11.415Z,1009.56
2022-12-16T11:23:10.420Z,1009.59
2022-12-16T11:24:10.415Z,1009.62
2022-12-16T11:25:10.416Z,1009.60
2022-12-16T11:26:10.386Z,1009.61
2022-12-16T11:27:10.385Z,1009.63
2022-12-16T11:28:10.364Z,1009.61
2022-12-16T11:29:10.361Z,1009.60
2022-12-16T11:30:10.328Z,1009.61
2022-12-16T11:31:10.377Z,1009.62
2022-12-16T11:32:10.316Z,1009.57
2022-12-16T11:33:10.310Z,1009.57
2022-12-16T11:34:10.293Z,1009.60
2022-12-16T11:35:10.315Z,1009.62
2022-12-16T11:36:10.282Z,1009.59
2022-12-16T11:37:11.251Z,1009.56
2022-12-16T11:38:10.253Z,1009.56
2022-12-16T11:39:10.246Z,1009.59
2022-12-16T11:40:10.227Z,1009.65
2022-12-16T11:41:10.209Z,1009.59
2022-12-16T11:42:10.262Z,1009.61
2022-12-16T11:43:16.630Z,1009.58
2022-12-16T11:44:11.181Z,1009.55
2022-12-16T11:45:10.161Z,1009.53
2022-12-16T11:46:10.187Z,1009.50
2022-12-16T11:47:10.155Z,1009.53
2022-12-16T11:48:10.157Z,1009.53
2022-12-16T11:49:10.162Z,1009.50
2022-12-16T11:50:10.110Z,1009.55
2022-12-16T11:51:10.115Z,1009.53
2022-12-16T11:52:35.422Z,1009.56
2022-12-16T11:53:11.115Z,1009.55
2022-12-16T11:54:10.058Z,1009.57
2022-12-16T11:55:10.116Z,1009.59
2022-12-16T11:56:15.697Z,1009.60
2022-12-16T11:57:11.046Z,1009.58
2022-12-16T11:58:10.025Z,1009.61
2022-12-16T11:59:10.028Z,1009.59
2022-12-16T12:00:10.002Z,1009.62
2022-12-16T12:01:09.999Z,1009.63
2022-12-16T12:02:10.118Z,1009.64
2022-12-16T12:03:10.071Z,1009.64
2022-12-16T12:04:10.084Z,1009.69
2022-12-16T12:05:09.956Z,1009.69
2022-12-16T12:06:09.928Z,1009.68
2022-12-16T12:07:10.015Z,1009.72
2022-12-16T12:08:09.915Z,1009.70
2022-12-16T12:09:09.897Z,1009.70
2022-12-16T12:10:09.918Z,1009.69
2022-12-16T12:11:09.902Z,1009.69
2022-12-16T12:12:09.865Z,1009.69
2022-12-16T12:13:09.852Z,1009.70
2022-12-16T12:14:09.848Z,1009.69
2022-12-16T12:15:09.828Z,1009.66
2022-12-16T12:16:09.923Z,1009.67
2022-12-16T12:17:09.805Z,1009.68
2022-12-16T12:18:09.802Z,1009.64
2022-12-16T12:19:09.790Z,1009.63
2022-12-16T12:20:09.769Z,1009.67
2022-12-16T12:21:09.781Z,1009.64
2022-12-16T12:22:09.757Z,1009.66
2022-12-16T12:23:09.816Z,1009.68
2022-12-16T12:24:09.847Z,1009.70
2022-12-16T12:25:09.714Z,1009.67
2022-12-16T12:26:09.715Z,1009.66
2022-12-16T12:27:09.696Z,1009.69
2022-12-16T12:28:09.708Z,1009.69
2022-12-16T12:29:09.688Z,1009.67
2022-12-16T12:30:16.051Z,1009.69
2022-12-16T12:31:10.693Z,1009.70
2022-12-16T12:32:09.633Z,1009.68
2022-12-16T12:33:09.639Z,1009.69
2022-12-16T12:34:09.610Z,1009.68
2022-12-16T12:35:09.604Z,1009.63
2022-12-16T12:36:09.601Z,1009.68
2022-12-16T12:37:09.600Z,1009.66
2022-12-16T12:38:09.574Z,1009.69
2022-12-16T12:39:09.595Z,1009.66
2022-12-16T12:40:09.546Z,1009.65
2022-12-16T12:41:09.551Z,1009.70
2022-12-16T12:42:09.523Z,1009.67
2022-12-16T12:43:09.511Z,1009.64
2022-12-16T12:44:09.515Z,1009.68
2022-12-16T12:45:09.491Z,1009.69
2022-12-16T12:46:09.493Z,1009.72
2022-12-16T12:47:09.582Z,1009.71
2022-12-16T12:48:09.453Z,1009.74
2022-12-16T12:49:09.447Z,1009.72
2022-12-16T12:50:09.450Z,1009.73
2022-12-16T12:51:09.440Z,1009.80
2022-12-16T12:52:09.424Z,1009.78
2022-12-16T12:53:09.425Z,1009.77
2022-12-16T12:54:09.401Z,1009.79
2022-12-16T12:55:09.611Z,1009.78
2022-12-16T12:56:09.381Z,1009.79
2022-12-16T12:57:09.375Z,1009.78
2022-12-16T12:58:09.355Z,1009.80
2022-12-16T12:59:09.336Z,1009.81
2022-12-16T13:00:09.380Z,1009.82
2022-12-16T13:01:09.449Z,1009.82
2022-12-16T13:02:09.508Z,1009.82
2022-12-16T13:03:09.466Z,1009.80
2022-12-16T13:04:09.288Z,1009.81
2022-12-16T13:05:09.284Z,1009.86
2022-12-16T13:06:09.284Z,1009.84
2022-12-16T13:07:09.261Z,1009.84
2022-12-16T13:08:09.244Z,1009.83
2022-12-16T13:09:09.225Z,1009.85
2022-12-16T13:10:09.210Z,1009.87
2022-12-16T13:11:09.247Z,1009.87
2022-12-16T13:12:09.200Z,1009.85
2022-12-16T13:13:09.180Z,1009.86
2022-12-16T13:14:09.185Z,1009.85
2022-12-16T13:15:09.165Z,1009.90
2022-12-16T13:16:09.214Z,1009.87
2022-12-16T13:17:09.134Z,1009.84
2022-12-16T13:18:09.140Z,1009.89
2022-12-16T13:19:09.899Z,1009.93
2022-12-16T13:20:09.111Z,1009.92
2022-12-16T13:21:09.088Z,1009.94
2022-12-16T13:22:09.102Z,1009.88
2022-12-16T13:23:09.085Z,1009.94
2022-12-16T13:24:09.067Z,1009.93
2022-12-16T13:25:09.057Z,1009.89
2022-12-16T13:26:09.040Z,1009.89
2022-12-16T13:27:09.070Z,1009.91
2022-12-16T13:28:09.034Z,1009.92
2022-12-16T13:29:08.997Z,1009.96
2022-12-16T13:30:09.000Z,1009.92
2022-12-16T13:31:09.056Z,1009.98
2022-12-16T13:32:09.046Z,1009.95
2022-12-16T13:33:08.966Z,1009.94
2022-12-16T13:34:08.948Z,1009.98
2022-12-16T13:35:08.948Z,1010.03
2022-12-16T13:36:08.934Z,1010.09
2022-12-16T13:37:08.968Z,1010.08
2022-12-16T13:38:08.930Z,1010.03
2022-12-16T13:39:08.902Z,1010.06
2022-12-16T13:40:08.885Z,1010.10
2022-12-16T13:41:08.879Z,1010.17
2022-12-16T13:42:08.850Z,1010.19
2022-12-16T13:43:08.907Z,1010.25
2022-12-16T13:44:08.833Z,1010.21
2022-12-16T13:45:08.837Z,1010.23
2022-12-16T13:46:08.855Z,1010.24
2022-12-16T13:47:08.805Z,1010.23
2022-12-16T13:48:08.812Z,1010.25
2022-12-16T13:49:08.791Z,1010.23
2022-12-16T13:50:08.771Z,1010.26
2022-12-16T13:51:09.107Z,1010.28
2022-12-16T13:52:08.740Z,1010.30
2022-12-16T13:53:09.242Z,1010.34
2022-12-16T13:54:08.736Z,1010.33
2022-12-16T13:55:08.725Z,1010.36
2022-12-16T13:56:08.706Z,1010.32
2022-12-16T13:57:08.686Z,1010.34
2022-12-16T13:58:08.690Z,1010.35
2022-12-16T13:59:08.760Z,1010.37
2022-12-16T14:00:08.828Z,1010.40
2022-12-16T14:01:08.746Z,1010.44
2022-12-16T14:02:08.739Z,1010.48
2022-12-16T14:03:08.658Z,1010.45
2022-12-16T14:04:08.626Z,1010.48
2022-12-16T14:05:08.618Z,1010.50
2022-12-16T14:06:08.598Z,1010.47
2022-12-16T14:07:08.589Z,1010.46
2022-12-16T14:08:08.563Z,1010.45
2022-12-16T14:09:08.551Z,1010.45
2022-12-16T14:10:08.608Z,1010.46
2022-12-16T14:11:08.567Z,1010.47
2022-12-16T14:12:08.533Z,1010.51
2022-12-16T14:13:08.509Z,1010.53
2022-12-16T14:14:08.497Z,1010.57
2022-12-16T14:15:08.508Z,1010.60
2022-12-16T14:16:08.575Z,1010.61
2022-12-16T14:17:08.573Z,1010.62
2022-12-16T14:18:08.467Z,1010.66
2022-12-16T14:19:08.442Z,1010.69
2022-12-16T14:20:08.586Z,1010.63
2022-12-16T14:21:08.433Z,1010.67
2022-12-16T14:22:08.416Z,1010.68
2022-12-16T14:23:08.408Z,1010.66
2022-12-16T14:24:08.395Z,1010.74
2022-12-16T14:25:08.383Z,1010.67
2022-12-16T14:26:08.393Z,1010.77
2022-12-16T14:27:08.362Z,1010.81
2022-12-16T14:28:08.337Z,1010.78
2022-12-16T14:29:08.347Z,1010.82
2022-12-16T14:30:08.330Z,1010.84
2022-12-16T14:31:08.348Z,1010.85
2022-12-16T14:32:08.366Z,1010.88
2022-12-16T14:33:08.306Z,1010.86
2022-12-16T14:34:08.287Z,1010.88
2022-12-16T14:35:08.284Z,1010.88
2022-12-16T14:36:08.262Z,1010.88
2022-12-16T14:37:08.242Z,1010.91
2022-12-16T14:38:08.254Z,1010.92
2022-12-16T14:39:08.235Z,1010.90
2022-12-16T14:40:08.219Z,1010.91
2022-12-16T14:41:08.197Z,1010.94
2022-12-16T14:42:08.197Z,1010.92
2022-12-16T14:43:11.273Z,1010.94
2022-12-16T14:44:08.201Z,1010.95
2022-12-16T14:45:08.175Z,1010.96
2022-12-16T14:46:08.187Z,1010.94
2022-12-16T14:47:08.169Z,1010.98
2022-12-16T14:48:08.160Z,1010.94
2022-12-16T14:49:08.128Z,1010.97
2022-12-16T14:50:08.153Z,1010.95
2022-12-16T14:51:08.093Z,1010.98
2022-12-16T14:52:08.086Z,1011.02
2022-12-16T14:53:08.092Z,1011.07
2022-12-16T14:54:08.048Z,1011.09
2022-12-16T14:55:08.056Z,1011.16
2022-12-16T14:56:08.025Z,1011.16
2022-12-16T14:57:08.032Z,1011.20
2022-12-16T14:58:08.014Z,1011.18
2022-12-16T14:59:08.022Z,1011.19
2022-12-16T15:00:07.990Z,1011.17
2022-12-16T15:01:12.289Z,1011.17
2022-12-16T15:02:09.283Z,1011.13
2022-12-16T15:03:08.170Z,1011.14
2022-12-16T15:04:08.267Z,1011.16
2022-12-16T15:05:07.991Z,1011.17
2022-12-16T15:06:07.936Z,1011.19
2022-12-16T15:07:07.907Z,1011.17
2022-12-16T15:08:07.894Z,1011.20
2022-12-16T15:09:07.902Z,1011.21
2022-12-16T15:10:07.876Z,1011.24
2022-12-16T15:11:07.877Z,1011.23
2022-12-16T15:12:07.850Z,1011.23
2022-12-16T15:13:07.856Z,1011.26
2022-12-16T15:14:07.849Z,1011.25
2022-12-16T15:15:07.843Z,1011.25
2022-12-16T15:16:07.802Z,1011.28
2022-12-16T15:17:07.877Z,1011.28
2022-12-16T15:18:07.812Z,1011.28
2022-12-16T15:19:07.813Z,1011.28
2022-12-16T15:20:07.867Z,1011.30
2022-12-16T15:21:07.749Z,1011.33
2022-12-16T15:22:07.758Z,1011.34
2022-12-16T15:23:07.751Z,1011.41
2022-12-16T15:24:07.717Z,1011.41
2022-12-16T15:25:07.708Z,1011.44
2022-12-16T15:26:07.712Z,1011.45
2022-12-16T15:27:07.685Z,1011.48
2022-12-16T15:28:07.692Z,1011.49
2022-12-16T15:29:07.679Z,1011.52
2022-12-16T15:30:07.662Z,1011.54
2022-12-16T15:31:07.739Z,1011.56
2022-12-16T15:32:07.701Z,1011.58
2022-12-16T15:33:07.619Z,1011.66
2022-12-16T15:34:07.620Z,1011.65
2022-12-16T15:35:07.638Z,1011.70
2022-12-16T15:36:07.598Z,1011.71
2022-12-16T15:37:07.575Z,1011.72
2022-12-16T15:38:07.587Z,1011.72
2022-12-16T15:39:07.550Z,1011.77
2022-12-16T15:40:07.556Z,1011.79
2022-12-16T15:41:07.545Z,1011.78
2022-12-16T15:42:07.534Z,1011.81
2022-12-16T15:43:07.557Z,1011.82
2022-12-16T15:44:07.509Z,1011.80
2022-12-16T15:45:07.496Z,1011.82
2022-12-16T15:46:07.551Z,1011.84
2022-12-16T15:47:07.474Z,1011.83
2022-12-16T15:48:07.470Z,1011.87
2022-12-16T15:49:07.516Z,1011.86
2022-12-16T15:50:07.481Z,1011.84
2022-12-16T15:51:07.454Z,1011.87
2022-12-16T15:52:07.413Z,1011.90
2022-12-16T15:53:07.399Z,1011.89
2022-12-16T15:54:07.464Z,1011.93
2022-12-16T15:55:07.393Z,1011.94
2022-12-16T15:56:07.369Z,1011.94
2022-12-16T15:57:07.360Z,1011.96
2022-12-16T15:58:07.342Z,1011.98
2022-12-16T15:59:07.407Z,1012.00
2022-12-16T16:00:07.335Z,1011.98
2022-12-16T16:01:07.347Z,1012.03
2022-12-16T16:02:07.500Z,1012.02
2022-12-16T16:03:07.684Z,1012.03
2022-12-16T16:04:07.346Z,1012.07
2022-12-16T16:05:07.288Z,1012.10
2022-12-16T16:06:07.309Z,1012.13
2022-12-16T16:07:07.270Z,1012.15
2022-12-16T16:08:07.245Z,1012.15
2022-12-16T16:09:07.216Z,1012.15
2022-12-16T16:10:07.229Z,1012.17
2022-12-16T16:11:07.208Z,1012.20
2022-12-16T16:12:07.219Z,1012.24
2022-12-16T16:13:07.188Z,1012.22
2022-12-16T16:14:12.430Z,1012.25
2022-12-16T16:15:08.163Z,1012.31
2022-12-16T16:16:07.222Z,1012.26
2022-12-16T16:17:07.185Z,1012.25
2022-12-16T16:18:07.120Z,1012.27
2022-12-16T16:19:07.106Z,1012.29
2022-12-16T16:20:07.144Z,1012.29
2022-12-16T16:21:07.082Z,1012.34
2022-12-16T16:22:07.082Z,1012.32
2022-12-16T16:23:07.169Z,1012.35
2022-12-16T16:24:07.066Z,1012.39
2022-12-16T16:25:07.041Z,1012.37
2022-12-16T16:26:07.053Z,1012.41
2022-12-16T16:27:07.029Z,1012.39
2022-12-16T16:28:07.024Z,1012.42
2022-12-16T16:29:07.029Z,1012.46
2022-12-16T16:30:07.001Z,1012.43
2022-12-16T16:31:07.063Z,1012.46
2022-12-16T16:32:06.984Z,1012.46
2022-12-16T16:33:06.953Z,1012.44
2022-12-16T16:34:06.975Z,1012.47
2022-12-16T16:35:06.942Z,1012.49
2022-12-16T16:36:06.920Z,1012.50
2022-12-16T16:37:06.923Z,1012.47
2022-12-16T16:38:06.923Z,1012.48
2022-12-16T16:39:06.908Z,1012.49
2022-12-16T16:40:06.890Z,1012.50
2022-12-16T16:41:06.866Z,1012.54
2022-12-16T16:42:06.865Z,1012.52
2022-12-16T16:43:06.856Z,1012.53
2022-12-16T16:44:06.850Z,1012.57
2022-12-16T16:45:06.877Z,1012.58
2022-12-16T16:46:06.837Z,1012.64
2022-12-16T16:47:06.807Z,1012.67
2022-12-16T16:48:06.801Z,1012.71
2022-12-16T16:49:07.758Z,1012.71
2022-12-16T16:50:06.770Z,1012.75
2022-12-16T16:51:06.764Z,1012.74
2022-12-16T16:52:06.775Z,1012.75
2022-12-16T16:53:06.729Z,1012.76
2022-12-16T16:54:06.735Z,1012.77
2022-12-16T16:55:06.753Z,1012.80
2022-12-16T16:56:06.729Z,1012.83
2022-12-16T16:57:06.702Z,1012.86
2022-12-16T16:58:06.679Z,1012.86
2022-12-16T16:59:06.662Z,1012.88
2022-12-16T17:00:06.671Z,1012.89
2022-12-16T17:01:06.745Z,1012.91
2022-12-16T17:02:06.769Z,1012.92
2022-12-16T17:03:06.824Z,1012.92
2022-12-16T17:04:06.778Z,1012.93
2022-12-16T17:05:06.623Z,1012.90
2022-12-16T17:06:06.589Z,1012.97
2022-12-16T17:07:06.600Z,1012.91
2022-12-16T17:08:06.566Z,1012.91
2022-12-16T17:09:06.565Z,1012.94
2022-12-16T17:10:06.556Z,1012.94
2022-12-16T17:11:06.554Z,1012.95
2022-12-16T17:12:06.541Z,1012.92
2022-12-16T17:13:06.504Z,1012.97
2022-12-16T17:14:06.501Z,1012.98
2022-12-16T17:15:06.503Z,1012.99
2022-12-16T17:16:06.502Z,1013.01
2022-12-16T17:17:06.520Z,1013.01
2022-12-16T17:18:06.480Z,1012.99
2022-12-16T17:19:06.453Z,1013.02
2022-12-16T17:20:06.442Z,1013.00
2022-12-16T17:21:06.419Z,1012.97
2022-12-16T17:22:06.425Z,1012.99
2022-12-16T17:23:06.427Z,1013.00
2022-12-16T17:24:06.396Z,1013.00
2022-12-16T17:25:06.389Z,1013.02
2022-12-16T17:26:06.366Z,1013.00
2022-12-16T17:27:06.507Z,1013.02
2022-12-16T17:28:06.373Z,1013.04
2022-12-16T17:29:06.331Z,1013.09
2022-12-16T17:30:06.343Z,1013.07
2022-12-16T17:31:06.375Z,1013.06
2022-12-16T17:32:06.323Z,1013.07
2022-12-16T17:33:06.315Z,1013.08
2022-12-16T17:34:06.279Z,1013.11
2022-12-16T17:35:06.264Z,1013.07
2022-12-16T17:36:06.267Z,1013.10
2022-12-16T17:37:06.257Z,1013.11
2022-12-16T17:38:06.234Z,1013.14
2022-12-16T17:39:06.242Z,1013.18
2022-12-16T17:40:06.209Z,1013.21
2022-12-16T17:41:06.209Z,1013.16
2022-12-16T17:42:06.189Z,1013.22
2022-12-16T17:43:06.211Z,1013.21
2022-12-16T17:44:06.196Z,1013.24
2022-12-16T17:45:06.167Z,1013.23
2022-12-16T17:46:06.246Z,1013.27
2022-12-16T17:47:06.295Z,1013.28
2022-12-16T17:48:06.135Z,1013.34
2022-12-16T17:49:06.136Z,1013.37
2022-12-16T17:50:06.112Z,1013.38
2022-12-16T17:51:06.095Z,1013.37
2022-12-16T17:52:06.089Z,1013.38
2022-12-16T17:53:06.060Z,1013.43
2022-12-16T17:54:15.797Z,1013.45
2022-12-16T17:55:07.052Z,1013.46
2022-12-16T17:56:06.034Z,1013.49
2022-12-16T17:57:06.029Z,1013.47
2022-12-16T17:58:06.014Z,1013.48
2022-12-16T17:59:06.056Z,1013.50
2022-12-16T18:00:06.011Z,1013.53
2022-12-16T18:01:05.976Z,1013.54
2022-12-16T18:02:06.101Z,1013.51
2022-12-16T18:03:06.144Z,1013.55
2022-12-16T18:04:06.042Z,1013.56
2022-12-16T18:05:05.928Z,1013.58
2022-12-16T18:06:05.937Z,1013.61
2022-12-16T18:07:05.913Z,1013.63
2022-12-16T18:08:05.900Z,1013.64
2022-12-16T18:09:05.897Z,1013.67
2022-12-16T18:10:05.878Z,1013.68
2022-12-16T18:11:05.894Z,1013.69
2022-12-16T18:12:05.868Z,1013.70
2022-12-16T18:13:05.855Z,1013.69
2022-12-16T18:14:05.829Z,1013.68
2022-12-16T18:15:05.855Z,1013.67
2022-12-16T18:16:05.888Z,1013.69
2022-12-16T18:17:05.800Z,1013.67
2022-12-16T18:18:05.789Z,1013.70
2022-12-16T18:19:05.787Z,1013.73
2022-12-16T18:20:05.780Z,1013.74
2022-12-16T18:21:05.773Z,1013.77
2022-12-16T18:22:05.745Z,1013.76
2022-12-16T18:23:05.750Z,1013.78
2022-12-16T18:24:05.743Z,1013.80
2022-12-16T18:25:05.709Z,1013.74
2022-12-16T18:26:05.741Z,1013.79
2022-12-16T18:27:05.684Z,1013.77
2022-12-16T18:28:05.678Z,1013.79
2022-12-16T18:29:05.666Z,1013.81
2022-12-16T18:30:05.657Z,1013.83
2022-12-16T18:31:05.707Z,1013.84
2022-12-16T18:32:05.662Z,1013.87
2022-12-16T18:33:05.632Z,1013.85
2022-12-16T18:34:05.611Z,1013.85
2022-12-16T18:35:05.598Z,1013.88
2022-12-16T18:36:05.588Z,1013.91
2022-12-16T18:37:05.599Z,1013.90
2022-12-16T18:38:05.573Z,1013.93
2022-12-16T18:39:05.563Z,1013.96
2022-12-16T18:40:05.570Z,1014.01
2022-12-16T18:41:05.542Z,1013.99
2022-12-16T18:42:05.538Z,1014.01
2022-12-16T18:43:05.669Z,1014.03
2022-12-16T18:44:05.512Z,1013.98
2022-12-16T18:45:05.488Z,1013.99
2022-12-16T18:46:05.546Z,1014.01
2022-12-16T18:47:05.492Z,1013.99
2022-12-16T18:48:05.491Z,1013.97
2022-12-16T18:49:05.455Z,1013.96
2022-12-16T18:50:05.451Z,1013.97
2022-12-16T18:51:05.431Z,1013.99
2022-12-16T18:52:05.415Z,1013.96
2022-12-16T18:53:05.486Z,1013.99
2022-12-16T18:54:05.404Z,1013.97
2022-12-16T18:55:05.375Z,1013.98
2022-12-16T18:56:05.371Z,1013.99
2022-12-16T18:57:05.353Z,1014.03
2022-12-16T18:58:16.552Z,1014.02
2022-12-16T18:59:06.358Z,1013.99
2022-12-16T19:00:05.324Z,1013.96
2022-12-16T19:01:05.372Z,1013.99
2022-12-16T19:02:05.534Z,1013.99
2022-12-16T19:03:05.481Z,1014.00
2022-12-16T19:04:05.342Z,1013.96
2022-12-16T19:05:05.267Z,1013.97
2022-12-16T19:06:05.276Z,1013.95
2022-12-16T19:07:05.240Z,1013.96
2022-12-16T19:08:07.012Z,1013.95
2022-12-16T19:09:05.232Z,1014.00
2022-12-16T19:10:05.237Z,1014.03
2022-12-16T19:11:05.210Z,1014.04
2022-12-16T19:12:05.210Z,1014.08
2022-12-16T19:13:05.175Z,1014.09
2022-12-16T19:14:05.182Z,1014.08
2022-12-16T19:15:05.244Z,1014.10
2022-12-16T19:16:05.184Z,1014.13
2022-12-16T19:17:05.145Z,1014.14
2022-12-16T19:18:05.141Z,1014.17
2022-12-16T19:19:05.136Z,1014.16
2022-12-16T19:20:05.115Z,1014.17
2022-12-16T19:21:05.084Z,1014.15
2022-12-16T19:22:05.077Z,1014.19
2022-12-16T19:23:05.079Z,1014.20
2022-12-16T19:24:05.060Z,1014.21
2022-12-16T19:25:05.041Z,1014.21
2022-12-16T19:26:05.061Z,1014.23
2022-12-16T19:27:05.869Z,1014.24
2022-12-16T19:28:05.030Z,1014.24
2022-12-16T19:29:05.027Z,1014.27
2022-12-16T19:30:05.002Z,1014.31
2022-12-16T19:31:04.990Z,1014.32
2022-12-16T19:32:05.097Z,1014.31
2022-12-16T19:33:04.971Z,1014.30
2022-12-16T19:34:05.000Z,1014.32
2022-12-16T19:35:05.020Z,1014.32
2022-12-16T19:36:04.950Z,1014.34
2022-12-16T19:37:04.909Z,1014.37
2022-12-16T19:38:04.915Z,1014.32
2022-12-16T19:39:04.902Z,1014.35
2022-12-16T19:40:04.893Z,1014.38
2022-12-16T19:41:04.899Z,1014.38
2022-12-16T19:42:04.869Z,1014.39
2022-12-16T19:43:04.854Z,1014.39
2022-12-16T19:44:06.359Z,1014.38
2022-12-16T19:45:04.833Z,1014.35
2022-12-16T19:46:04.871Z,1014.35
2022-12-16T19:47:04.835Z,1014.37
2022-12-16T19:48:04.810Z,1014.37
2022-12-16T19:49:04.790Z,1014.38
2022-12-16T19:50:04.782Z,1014.39
2022-12-16T19:51:04.771Z,1014.38
2022-12-16T19:52:04.824Z,1014.41
2022-12-16T19:53:04.752Z,1014.40
2022-12-16T19:54:04.737Z,1014.45
2022-12-16T19:55:04.718Z,1014.47
2022-12-16T19:56:04.710Z,1014.48
2022-12-16T19:57:04.720Z,1014.52
2022-12-16T19:58:04.688Z,1014.55
2022-12-16T19:59:04.680Z,1014.57
2022-12-16T20:00:04.661Z,1014.55
2022-12-16T20:01:04.678Z,1014.61
2022-12-16T20:02:04.793Z,1014.65
2022-12-16T20:03:05.131Z,1014.66
2022-12-16T20:04:04.610Z,1014.66
2022-12-16T20:05:04.621Z,1014.69
2022-12-16T20:06:04.587Z,1014.71
2022-12-16T20:07:04.615Z,1014.75
2022-12-16T20:08:04.583Z,1014.79
2022-12-16T20:09:04.559Z,1014.74
2022-12-16T20:10:04.548Z,1014.74
2022-12-16T20:11:04.538Z,1014.76
2022-12-16T20:12:04.533Z,1014.76
2022-12-16T20:13:04.526Z,1014.78